sensor_id;sensor_type;location;lat;lon;timestamp;temperature;humidity
41876;DHT22;27555;50.808;4.402;2022-09-13T00:01:27;20.00;99.90
41876;DHT22;27555;50.808;4.402;2022-09-13T00:03:53;20.00;99.90
41876;DHT22;27555;50.808;4.402;2022-09-13T00:06:19;19.90;99.90
41876;DHT22;27555;50.808;4.402;2022-09-13T00:08:45;19.90;99.90
41876;DHT22;27555;50.808;4.402;2022-09-13T00:11:20;19.90;99.90
41876;DHT22;27555;50.808;4.402;2022-09-13T00:13:46;19.90;99.90
41876;DHT22;27555;50.808;4.402;2022-09-13T00:16:13;19.80;99.90
41876;DHT22;27555;50.808;4.402;2022-09-13T00:18:40;19.80;99.90
41876;DHT22;27555;50.808;4.402;2022-09-13T00:21:08;19.90;99.90
41876;DHT22;27555;50.808;4.402;2022-09-13T00:23:34;19.90;99.90
41876;DHT22;27555;50.808;4.402;2022-09-13T00:26:09;19.90;99.90
41876;DHT22;27555;50.808;4.402;2022-09-13T00:28:35;19.90;99.90
41876;DHT22;27555;50.808;4.402;2022-09-13T00:31:04;19.90;99.90
41876;DHT22;27555;50.808;4.402;2022-09-13T00:33:30;19.80;99.90
41876;DHT22;27555;50.808;4.402;2022-09-13T00:35:56;19.80;99.90
41876;DHT22;27555;50.808;4.402;2022-09-13T00:38:22;19.80;99.90
41876;DHT22;27555;50.808;4.402;2022-09-13T00:40:47;19.80;99.90
41876;DHT22;27555;50.808;4.402;2022-09-13T00:43:18;19.80;99.90
41876;DHT22;27555;50.808;4.402;2022-09-13T00:45:45;19.80;99.90
41876;DHT22;27555;50.808;4.402;2022-09-13T00:48:21;19.90;99.90
41876;DHT22;27555;50.808;4.402;2022-09-13T00:50:53;19.90;99.90
41876;DHT22;27555;50.808;4.402;2022-09-13T00:53:33;20.00;99.90
41876;DHT22;27555;50.808;4.402;2022-09-13T00:56:16;20.00;99.90
41876;DHT22;27555;50.808;4.402;2022-09-13T00:58:49;20.00;99.90
41876;DHT22;27555;50.808;4.402;2022-09-13T01:01:18;20.00;99.90
41876;DHT22;27555;50.808;4.402;2022-09-13T01:03:46;20.00;99.90
41876;DHT22;27555;50.808;4.402;2022-09-13T01:06:21;20.00;99.90
41876;DHT22;27555;50.808;4.402;2022-09-13T01:08:51;20.00;99.90
41876;DHT22;27555;50.808;4.402;2022-09-13T01:11:29;20.00;99.90
41876;DHT22;27555;50.808;4.402;2022-09-13T01:13:57;20.00;99.90
41876;DHT22;27555;50.808;4.402;2022-09-13T01:16:23;20.10;99.90
41876;DHT22;27555;50.808;4.402;2022-09-13T01:18:49;20.10;99.90
41876;DHT22;27555;50.808;4.402;2022-09-13T01:21:51;20.00;99.90
41876;DHT22;27555;50.808;4.402;2022-09-13T01:52:35;20.40;99.90
41876;DHT22;27555;50.808;4.402;2022-09-13T01:58:35;20.40;99.90
41876;DHT22;27555;50.808;4.402;2022-09-13T02:01:17;20.30;99.90
41876;DHT22;27555;50.808;4.402;2022-09-13T02:04:13;20.40;99.90
41876;DHT22;27555;50.808;4.402;2022-09-13T02:06:47;20.30;99.90
41876;DHT22;27555;50.808;4.402;2022-09-13T02:09:18;20.30;99.90
41876;DHT22;27555;50.808;4.402;2022-09-13T02:11:48;20.30;99.90
41876;DHT22;27555;50.808;4.402;2022-09-13T02:14:18;20.20;99.90
41876;DHT22;27555;50.808;4.402;2022-09-13T02:16:57;20.20;99.90
41876;DHT22;27555;50.808;4.402;2022-09-13T02:19:37;20.20;99.90
41876;DHT22;27555;50.808;4.402;2022-09-13T02:22:06;20.30;99.90
41876;DHT22;27555;50.808;4.402;2022-09-13T02:24:36;20.30;99.90
41876;DHT22;27555;50.808;4.402;2022-09-13T02:27:10;20.30;99.90
41876;DHT22;27555;50.808;4.402;2022-09-13T02:29:39;20.30;99.90
41876;DHT22;27555;50.808;4.402;2022-09-13T02:32:30;20.30;99.90
41876;DHT22;27555;50.808;4.402;2022-09-13T02:35:02;20.30;99.90
41876;DHT22;27555;50.808;4.402;2022-09-13T02:37:30;20.20;99.90
41876;DHT22;27555;50.808;4.402;2022-09-13T02:40:03;20.20;99.90
41876;DHT22;27555;50.808;4.402;2022-09-13T02:42:41;20.20;99.90
41876;DHT22;27555;50.808;4.402;2022-09-13T02:45:09;20.20;99.90
41876;DHT22;27555;50.808;4.402;2022-09-13T02:48:03;20.20;99.90
41876;DHT22;27555;50.808;4.402;2022-09-13T02:55:59;20.20;99.90
41876;DHT22;27555;50.808;4.402;2022-09-13T02:58:48;20.10;99.90
41876;DHT22;27555;50.808;4.402;2022-09-13T03:01:16;20.20;99.90
41876;DHT22;27555;50.808;4.402;2022-09-13T03:03:42;20.10;99.90
41876;DHT22;27555;50.808;4.402;2022-09-13T03:06:09;20.10;99.90
41876;DHT22;27555;50.808;4.402;2022-09-13T03:08:35;20.20;99.90
41876;DHT22;27555;50.808;4.402;2022-09-13T03:19:16;20.20;99.90
41876;DHT22;27555;50.808;4.402;2022-09-13T03:21:53;20.30;99.90
41876;DHT22;27555;50.808;4.402;2022-09-13T03:32:40;20.20;99.90
41876;DHT22;27555;50.808;4.402;2022-09-13T03:38:28;20.20;99.90
41876;DHT22;27555;50.808;4.402;2022-09-13T03:40:59;20.20;99.90
41876;DHT22;27555;50.808;4.402;2022-09-13T03:46:09;20.20;99.90
41876;DHT22;27555;50.808;4.402;2022-09-13T03:48:38;20.20;99.90
41876;DHT22;27555;50.808;4.402;2022-09-13T03:51:06;20.20;99.90
41876;DHT22;27555;50.808;4.402;2022-09-13T03:53:36;20.20;99.90
41876;DHT22;27555;50.808;4.402;2022-09-13T03:56:12;20.20;99.90
41876;DHT22;27555;50.808;4.402;2022-09-13T03:58:38;20.20;99.90
41876;DHT22;27555;50.808;4.402;2022-09-13T04:01:04;20.30;99.90
41876;DHT22;27555;50.808;4.402;2022-09-13T04:03:29;20.30;99.90
41876;DHT22;27555;50.808;4.402;2022-09-13T04:05:55;20.30;99.90
41876;DHT22;27555;50.808;4.402;2022-09-13T04:08:21;20.30;99.90
41876;DHT22;27555;50.808;4.402;2022-09-13T04:10:49;20.20;99.90
41876;DHT22;27555;50.808;4.402;2022-09-13T04:13:16;20.20;99.90
41876;DHT22;27555;50.808;4.402;2022-09-13T04:15:42;20.20;99.90
41876;DHT22;27555;50.808;4.402;2022-09-13T04:18:07;20.20;99.90
41876;DHT22;27555;50.808;4.402;2022-09-13T04:20:33;20.20;99.90
41876;DHT22;27555;50.808;4.402;2022-09-13T04:23:00;20.20;99.90
41876;DHT22;27555;50.808;4.402;2022-09-13T04:25:26;20.20;99.90
41876;DHT22;27555;50.808;4.402;2022-09-13T04:27:56;20.10;99.90
41876;DHT22;27555;50.808;4.402;2022-09-13T04:30:24;20.20;99.90
41876;DHT22;27555;50.808;4.402;2022-09-13T04:32:50;20.20;99.90
41876;DHT22;27555;50.808;4.402;2022-09-13T04:35:16;20.20;99.90
41876;DHT22;27555;50.808;4.402;2022-09-13T04:37:44;20.20;99.90
41876;DHT22;27555;50.808;4.402;2022-09-13T04:40:10;20.20;99.90
41876;DHT22;27555;50.808;4.402;2022-09-13T04:42:36;20.20;99.90
41876;DHT22;27555;50.808;4.402;2022-09-13T04:45:02;20.20;99.90
41876;DHT22;27555;50.808;4.402;2022-09-13T04:47:28;20.20;99.90
41876;DHT22;27555;50.808;4.402;2022-09-13T04:49:53;20.20;99.90
41876;DHT22;27555;50.808;4.402;2022-09-13T04:52:19;20.10;99.90
41876;DHT22;27555;50.808;4.402;2022-09-13T04:54:45;20.10;99.90
41876;DHT22;27555;50.808;4.402;2022-09-13T04:57:12;20.00;99.90
41876;DHT22;27555;50.808;4.402;2022-09-13T04:59:38;20.10;99.90
41876;DHT22;27555;50.808;4.402;2022-09-13T05:02:03;20.10;99.90
41876;DHT22;27555;50.808;4.402;2022-09-13T05:04:29;20.10;99.90
41876;DHT22;27555;50.808;4.402;2022-09-13T05:06:54;20.10;99.90
41876;DHT22;27555;50.808;4.402;2022-09-13T05:09:20;20.10;99.90
41876;DHT22;27555;50.808;4.402;2022-09-13T05:11:45;20.10;99.90
41876;DHT22;27555;50.808;4.402;2022-09-13T05:14:11;20.10;99.90
41876;DHT22;27555;50.808;4.402;2022-09-13T05:16:37;20.10;99.90
41876;DHT22;27555;50.808;4.402;2022-09-13T05:19:02;20.20;99.90
41876;DHT22;27555;50.808;4.402;2022-09-13T05:21:29;20.20;99.90
41876;DHT22;27555;50.808;4.402;2022-09-13T05:23:56;20.20;99.90
41876;DHT22;27555;50.808;4.402;2022-09-13T05:26:25;20.20;99.90
41876;DHT22;27555;50.808;4.402;2022-09-13T05:28:51;20.20;99.90
41876;DHT22;27555;50.808;4.402;2022-09-13T05:31:28;20.20;99.90
41876;DHT22;27555;50.808;4.402;2022-09-13T05:33:57;20.20;99.90
41876;DHT22;27555;50.808;4.402;2022-09-13T05:36:24;20.20;99.90
41876;DHT22;27555;50.808;4.402;2022-09-13T05:38:54;20.20;99.90
41876;DHT22;27555;50.808;4.402;2022-09-13T05:41:20;20.20;99.90
41876;DHT22;27555;50.808;4.402;2022-09-13T05:43:46;20.20;99.90
41876;DHT22;27555;50.808;4.402;2022-09-13T05:46:14;20.20;99.90
41876;DHT22;27555;50.808;4.402;2022-09-13T05:48:41;20.20;99.90
41876;DHT22;27555;50.808;4.402;2022-09-13T05:53:37;20.20;99.90
41876;DHT22;27555;50.808;4.402;2022-09-13T05:56:10;20.20;99.90
41876;DHT22;27555;50.808;4.402;2022-09-13T05:58:40;20.20;99.90
41876;DHT22;27555;50.808;4.402;2022-09-13T06:01:06;20.20;99.90
41876;DHT22;27555;50.808;4.402;2022-09-13T06:03:32;20.10;99.90
41876;DHT22;27555;50.808;4.402;2022-09-13T06:05:58;20.20;99.90
41876;DHT22;27555;50.808;4.402;2022-09-13T06:08:25;20.20;99.90
41876;DHT22;27555;50.808;4.402;2022-09-13T06:11:05;20.20;99.90
41876;DHT22;27555;50.808;4.402;2022-09-13T06:13:31;20.30;99.90
41876;DHT22;27555;50.808;4.402;2022-09-13T06:15:58;20.30;99.90
41876;DHT22;27555;50.808;4.402;2022-09-13T06:18:25;20.30;99.90
41876;DHT22;27555;50.808;4.402;2022-09-13T06:20:51;20.20;99.90
41876;DHT22;27555;50.808;4.402;2022-09-13T06:23:16;20.30;99.90
41876;DHT22;27555;50.808;4.402;2022-09-13T06:25:42;20.30;99.90
41876;DHT22;27555;50.808;4.402;2022-09-13T06:28:08;20.40;99.90
41876;DHT22;27555;50.808;4.402;2022-09-13T06:30:36;20.40;99.90
41876;DHT22;27555;50.808;4.402;2022-09-13T06:33:01;20.50;99.90
41876;DHT22;27555;50.808;4.402;2022-09-13T06:35:27;20.50;99.90
41876;DHT22;27555;50.808;4.402;2022-09-13T06:37:55;20.50;99.90
41876;DHT22;27555;50.808;4.402;2022-09-13T06:40:22;20.60;99.90
41876;DHT22;27555;50.808;4.402;2022-09-13T06:42:47;20.60;99.90
41876;DHT22;27555;50.808;4.402;2022-09-13T06:45:13;20.60;99.90
41876;DHT22;27555;50.808;4.402;2022-09-13T06:47:39;20.60;99.90
41876;DHT22;27555;50.808;4.402;2022-09-13T06:50:05;20.70;99.90
41876;DHT22;27555;50.808;4.402;2022-09-13T06:52:32;20.70;99.90
41876;DHT22;27555;50.808;4.402;2022-09-13T06:54:57;20.70;99.90
41876;DHT22;27555;50.808;4.402;2022-09-13T06:57:23;20.70;99.90
41876;DHT22;27555;50.808;4.402;2022-09-13T06:59:50;20.80;99.90
41876;DHT22;27555;50.808;4.402;2022-09-13T07:02:15;20.90;99.90
41876;DHT22;27555;50.808;4.402;2022-09-13T07:04:41;20.90;99.90
41876;DHT22;27555;50.808;4.402;2022-09-13T07:07:06;21.00;99.90
41876;DHT22;27555;50.808;4.402;2022-09-13T07:09:32;21.00;99.90
41876;DHT22;27555;50.808;4.402;2022-09-13T07:12:00;21.10;99.90
41876;DHT22;27555;50.808;4.402;2022-09-13T07:14:28;21.20;99.90
41876;DHT22;27555;50.808;4.402;2022-09-13T07:16:54;21.20;99.90
41876;DHT22;27555;50.808;4.402;2022-09-13T07:19:21;21.20;99.90
41876;DHT22;27555;50.808;4.402;2022-09-13T07:21:48;21.30;99.90
41876;DHT22;27555;50.808;4.402;2022-09-13T07:24:17;21.40;99.90
41876;DHT22;27555;50.808;4.402;2022-09-13T07:26:43;21.40;99.90
41876;DHT22;27555;50.808;4.402;2022-09-13T07:29:11;21.50;99.90
41876;DHT22;27555;50.808;4.402;2022-09-13T07:31:40;21.50;99.90
41876;DHT22;27555;50.808;4.402;2022-09-13T07:34:11;21.60;99.90
41876;DHT22;27555;50.808;4.402;2022-09-13T07:36:37;21.50;99.90
41876;DHT22;27555;50.808;4.402;2022-09-13T07:39:04;21.60;99.90
41876;DHT22;27555;50.808;4.402;2022-09-13T07:41:30;21.70;99.90
41876;DHT22;27555;50.808;4.402;2022-09-13T07:43:57;21.80;99.90
41876;DHT22;27555;50.808;4.402;2022-09-13T07:46:24;22.00;99.90
41876;DHT22;27555;50.808;4.402;2022-09-13T07:48:55;22.20;99.90
41876;DHT22;27555;50.808;4.402;2022-09-13T07:51:41;22.40;99.90
41876;DHT22;27555;50.808;4.402;2022-09-13T07:54:13;22.70;99.90
41876;DHT22;27555;50.808;4.402;2022-09-13T07:56:40;22.90;99.90
41876;DHT22;27555;50.808;4.402;2022-09-13T07:59:09;23.10;99.90
41876;DHT22;27555;50.808;4.402;2022-09-13T08:01:38;23.50;99.90
41876;DHT22;27555;50.808;4.402;2022-09-13T08:04:06;24.00;99.90
41876;DHT22;27555;50.808;4.402;2022-09-13T08:06:33;24.80;99.90
41876;DHT22;27555;50.808;4.402;2022-09-13T08:08:59;25.50;99.90
41876;DHT22;27555;50.808;4.402;2022-09-13T08:11:29;25.50;99.90
41876;DHT22;27555;50.808;4.402;2022-09-13T08:13:55;25.40;99.90
41876;DHT22;27555;50.808;4.402;2022-09-13T08:16:23;25.40;99.90
41876;DHT22;27555;50.808;4.402;2022-09-13T08:18:50;25.30;99.90
41876;DHT22;27555;50.808;4.402;2022-09-13T08:21:17;25.20;99.90
41876;DHT22;27555;50.808;4.402;2022-09-13T08:23:43;25.10;99.90
41876;DHT22;27555;50.808;4.402;2022-09-13T08:26:09;25.10;99.90
41876;DHT22;27555;50.808;4.402;2022-09-13T08:28:36;25.00;99.90
41876;DHT22;27555;50.808;4.402;2022-09-13T08:31:03;25.10;99.90
41876;DHT22;27555;50.808;4.402;2022-09-13T08:33:29;24.70;99.90
41876;DHT22;27555;50.808;4.402;2022-09-13T08:35:57;24.90;99.90
41876;DHT22;27555;50.808;4.402;2022-09-13T08:38:23;25.20;99.90
41876;DHT22;27555;50.808;4.402;2022-09-13T08:41:15;25.30;99.90
41876;DHT22;27555;50.808;4.402;2022-09-13T08:46:27;25.10;99.90
41876;DHT22;27555;50.808;4.402;2022-09-13T08:48:57;25.10;99.90
41876;DHT22;27555;50.808;4.402;2022-09-13T08:51:30;25.10;99.90
41876;DHT22;27555;50.808;4.402;2022-09-13T08:53:57;25.10;99.90
41876;DHT22;27555;50.808;4.402;2022-09-13T09:07:49;24.90;99.90
41876;DHT22;27555;50.808;4.402;2022-09-13T09:10:30;25.20;99.90
41876;DHT22;27555;50.808;4.402;2022-09-13T09:13:07;25.60;99.80
41876;DHT22;27555;50.808;4.402;2022-09-13T09:15:49;26.00;99.20
41876;DHT22;27555;50.808;4.402;2022-09-13T09:18:23;26.30;98.60
41876;DHT22;27555;50.808;4.402;2022-09-13T09:20:52;26.80;98.60
41876;DHT22;27555;50.808;4.402;2022-09-13T09:23:21;27.20;98.00
41876;DHT22;27555;50.808;4.402;2022-09-13T09:25:53;27.40;97.70
41876;DHT22;27555;50.808;4.402;2022-09-13T09:28:19;27.90;97.30
41876;DHT22;27555;50.808;4.402;2022-09-13T09:31:01;28.60;95.80
41876;DHT22;27555;50.808;4.402;2022-09-13T09:36:44;27.70;96.10
41876;DHT22;27555;50.808;4.402;2022-09-13T09:39:14;27.10;96.70
41876;DHT22;27555;50.808;4.402;2022-09-13T09:41:42;27.10;96.90
41876;DHT22;27555;50.808;4.402;2022-09-13T09:44:21;26.90;96.60
41876;DHT22;27555;50.808;4.402;2022-09-13T09:46:51;26.70;96.90
41876;DHT22;27555;50.808;4.402;2022-09-13T09:52:55;26.10;97.50
41876;DHT22;27555;50.808;4.402;2022-09-13T09:58:08;26.10;98.00
41876;DHT22;27555;50.808;4.402;2022-09-13T10:00:52;26.00;97.80
41876;DHT22;27555;50.808;4.402;2022-09-13T10:03:24;25.80;98.10
41876;DHT22;27555;50.808;4.402;2022-09-13T10:05:50;25.90;98.40
41876;DHT22;27555;50.808;4.402;2022-09-13T10:08:31;25.90;98.30
41876;DHT22;27555;50.808;4.402;2022-09-13T10:10:58;25.90;98.40
41876;DHT22;27555;50.808;4.402;2022-09-13T10:13:25;26.00;98.50
41876;DHT22;27555;50.808;4.402;2022-09-13T10:15:53;26.20;98.40
41876;DHT22;27555;50.808;4.402;2022-09-13T10:18:20;26.20;97.90
41876;DHT22;27555;50.808;4.402;2022-09-13T10:21:04;26.30;98.00
41876;DHT22;27555;50.808;4.402;2022-09-13T10:23:34;26.10;97.10
41876;DHT22;27555;50.808;4.402;2022-09-13T10:26:16;26.10;97.60
41876;DHT22;27555;50.808;4.402;2022-09-13T10:28:59;26.00;97.80
41876;DHT22;27555;50.808;4.402;2022-09-13T10:31:29;25.90;98.10
41876;DHT22;27555;50.808;4.402;2022-09-13T10:34:10;25.80;98.20
41876;DHT22;27555;50.808;4.402;2022-09-13T10:36:37;25.80;98.60
41876;DHT22;27555;50.808;4.402;2022-09-13T10:39:16;25.70;98.40
41876;DHT22;27555;50.808;4.402;2022-09-13T10:41:49;25.50;98.50
41876;DHT22;27555;50.808;4.402;2022-09-13T10:44:45;25.40;98.80
41876;DHT22;27555;50.808;4.402;2022-09-13T10:47:25;25.30;98.80
41876;DHT22;27555;50.808;4.402;2022-09-13T10:49:54;25.40;99.10
41876;DHT22;27555;50.808;4.402;2022-09-13T10:52:34;25.60;99.30
41876;DHT22;27555;50.808;4.402;2022-09-13T11:00:31;25.50;99.20
41876;DHT22;27555;50.808;4.402;2022-09-13T11:03:16;25.50;99.20
41876;DHT22;27555;50.808;4.402;2022-09-13T11:06:04;25.60;99.10
41876;DHT22;27555;50.808;4.402;2022-09-13T11:14:12;25.50;99.60
41876;DHT22;27555;50.808;4.402;2022-09-13T11:19:49;25.60;99.70
41876;DHT22;27555;50.808;4.402;2022-09-13T11:25:13;25.80;99.30
41876;DHT22;27555;50.808;4.402;2022-09-13T11:27:49;25.80;99.30
41876;DHT22;27555;50.808;4.402;2022-09-13T11:30:19;25.80;99.40
41876;DHT22;27555;50.808;4.402;2022-09-13T11:33:05;25.70;99.50
41876;DHT22;27555;50.808;4.402;2022-09-13T11:35:53;25.60;99.70
41876;DHT22;27555;50.808;4.402;2022-09-13T11:41:59;25.50;99.90
41876;DHT22;27555;50.808;4.402;2022-09-13T11:57:41;25.60;99.30
41876;DHT22;27555;50.808;4.402;2022-09-13T12:00:20;25.70;99.00
41876;DHT22;27555;50.808;4.402;2022-09-13T12:03:14;25.70;99.10
41876;DHT22;27555;50.808;4.402;2022-09-13T12:05:47;25.60;99.00
41876;DHT22;27555;50.808;4.402;2022-09-13T12:08:29;25.60;99.20
41876;DHT22;27555;50.808;4.402;2022-09-13T12:11:04;25.50;99.40
41876;DHT22;27555;50.808;4.402;2022-09-13T12:13:56;25.50;99.60
41876;DHT22;27555;50.808;4.402;2022-09-13T12:16:36;25.50;99.70
41876;DHT22;27555;50.808;4.402;2022-09-13T12:19:22;25.40;99.70
41876;DHT22;27555;50.808;4.402;2022-09-13T12:21:52;25.30;99.90
41876;DHT22;27555;50.808;4.402;2022-09-13T12:24:44;25.20;99.90
41876;DHT22;27555;50.808;4.402;2022-09-13T12:27:30;25.30;99.90
41876;DHT22;27555;50.808;4.402;2022-09-13T12:30:08;25.30;99.90
41876;DHT22;27555;50.808;4.402;2022-09-13T12:32:37;25.30;99.90
41876;DHT22;27555;50.808;4.402;2022-09-13T12:35:04;25.40;99.90
41876;DHT22;27555;50.808;4.402;2022-09-13T12:43:44;25.40;99.90
41876;DHT22;27555;50.808;4.402;2022-09-13T12:52:03;25.60;99.90
41876;DHT22;27555;50.808;4.402;2022-09-13T12:54:53;25.50;99.90
41876;DHT22;27555;50.808;4.402;2022-09-13T13:00:27;25.40;99.90
41876;DHT22;27555;50.808;4.402;2022-09-13T13:03:14;25.40;99.90
41876;DHT22;27555;50.808;4.402;2022-09-13T13:05:47;25.60;99.90
41876;DHT22;27555;50.808;4.402;2022-09-13T13:11:10;25.60;99.90
41876;DHT22;27555;50.808;4.402;2022-09-13T13:13:57;25.30;99.90
41876;DHT22;27555;50.808;4.402;2022-09-13T13:16:32;25.10;99.90
41876;DHT22;27555;50.808;4.402;2022-09-13T13:19:03;25.20;99.90
41876;DHT22;27555;50.808;4.402;2022-09-13T13:26:51;25.50;99.90
41876;DHT22;27555;50.808;4.402;2022-09-13T13:39:35;25.50;99.90
41876;DHT22;27555;50.808;4.402;2022-09-13T14:00:19;24.90;99.90
41876;DHT22;27555;50.808;4.402;2022-09-13T14:03:07;24.80;99.90
41876;DHT22;27555;50.808;4.402;2022-09-13T14:06:05;24.70;99.90
41876;DHT22;27555;50.808;4.402;2022-09-13T14:08:43;24.70;99.90
41876;DHT22;27555;50.808;4.402;2022-09-13T14:19:28;24.70;99.90
41876;DHT22;27555;50.808;4.402;2022-09-13T14:25:31;24.60;99.90
41876;DHT22;27555;50.808;4.402;2022-09-13T14:27:58;24.60;99.90
41876;DHT22;27555;50.808;4.402;2022-09-13T14:30:37;24.40;99.90
41876;DHT22;27555;50.808;4.402;2022-09-13T14:33:03;24.50;99.90
41876;DHT22;27555;50.808;4.402;2022-09-13T14:35:38;24.40;99.90
41876;DHT22;27555;50.808;4.402;2022-09-13T14:38:19;24.10;99.90
41876;DHT22;27555;50.808;4.402;2022-09-13T14:40:49;23.80;99.90
41876;DHT22;27555;50.808;4.402;2022-09-13T14:43:18;23.70;99.90
41876;DHT22;27555;50.808;4.402;2022-09-13T14:45:47;23.90;99.90
41876;DHT22;27555;50.808;4.402;2022-09-13T14:48:21;24.10;99.90
41876;DHT22;27555;50.808;4.402;2022-09-13T14:50:55;24.20;99.90
41876;DHT22;27555;50.808;4.402;2022-09-13T14:53:28;24.20;99.90
41876;DHT22;27555;50.808;4.402;2022-09-13T14:56:06;24.10;99.90
41876;DHT22;27555;50.808;4.402;2022-09-13T14:58:50;24.10;99.90
41876;DHT22;27555;50.808;4.402;2022-09-13T15:01:20;24.00;99.90
41876;DHT22;27555;50.808;4.402;2022-09-13T15:03:47;24.00;99.90
41876;DHT22;27555;50.808;4.402;2022-09-13T15:06:25;24.10;99.90
41876;DHT22;27555;50.808;4.402;2022-09-13T15:08:59;24.30;99.90
41876;DHT22;27555;50.808;4.402;2022-09-13T15:11:33;24.30;99.90
41876;DHT22;27555;50.808;4.402;2022-09-13T15:14:24;24.20;99.90
41876;DHT22;27555;50.808;4.402;2022-09-13T15:16:52;24.10;99.90
41876;DHT22;27555;50.808;4.402;2022-09-13T15:19:29;24.10;99.90
41876;DHT22;27555;50.808;4.402;2022-09-13T15:22:13;24.10;99.90
41876;DHT22;27555;50.808;4.402;2022-09-13T15:24:44;24.10;99.90
41876;DHT22;27555;50.808;4.402;2022-09-13T15:27:31;24.10;99.90
41876;DHT22;27555;50.808;4.402;2022-09-13T15:30:25;24.20;99.90
41876;DHT22;27555;50.808;4.402;2022-09-13T15:35:47;24.10;99.90
41876;DHT22;27555;50.808;4.402;2022-09-13T15:38:22;24.00;99.90
41876;DHT22;27555;50.808;4.402;2022-09-13T15:43:36;23.90;99.90
41876;DHT22;27555;50.808;4.402;2022-09-13T15:46:01;23.90;99.90
41876;DHT22;27555;50.808;4.402;2022-09-13T15:48:30;23.90;99.90
41876;DHT22;27555;50.808;4.402;2022-09-13T15:51:16;24.00;99.90
41876;DHT22;27555;50.808;4.402;2022-09-13T15:53:43;24.00;99.90
41876;DHT22;27555;50.808;4.402;2022-09-13T15:56:13;24.00;99.90
41876;DHT22;27555;50.808;4.402;2022-09-13T15:58:39;24.00;99.90
41876;DHT22;27555;50.808;4.402;2022-09-13T16:01:05;24.00;99.90
41876;DHT22;27555;50.808;4.402;2022-09-13T16:03:31;23.90;99.90
41876;DHT22;27555;50.808;4.402;2022-09-13T16:05:57;23.90;99.90
41876;DHT22;27555;50.808;4.402;2022-09-13T16:08:23;23.90;99.90
41876;DHT22;27555;50.808;4.402;2022-09-13T16:10:49;23.80;99.90
41876;DHT22;27555;50.808;4.402;2022-09-13T16:13:15;23.80;99.90
41876;DHT22;27555;50.808;4.402;2022-09-13T16:15:41;23.80;99.90
41876;DHT22;27555;50.808;4.402;2022-09-13T16:18:07;23.80;99.90
41876;DHT22;27555;50.808;4.402;2022-09-13T16:20:33;23.80;99.90
41876;DHT22;27555;50.808;4.402;2022-09-13T16:22:59;23.70;99.90
41876;DHT22;27555;50.808;4.402;2022-09-13T16:25:24;23.70;99.90
41876;DHT22;27555;50.808;4.402;2022-09-13T16:27:50;23.70;99.90
41876;DHT22;27555;50.808;4.402;2022-09-13T16:30:18;23.60;99.90
41876;DHT22;27555;50.808;4.402;2022-09-13T16:32:44;23.50;99.90
41876;DHT22;27555;50.808;4.402;2022-09-13T16:35:11;23.40;99.90
41876;DHT22;27555;50.808;4.402;2022-09-13T16:37:40;23.30;99.90
41876;DHT22;27555;50.808;4.402;2022-09-13T16:40:07;23.20;99.90
41876;DHT22;27555;50.808;4.402;2022-09-13T16:42:34;23.20;99.90
41876;DHT22;27555;50.808;4.402;2022-09-13T16:45:00;23.20;99.90
41876;DHT22;27555;50.808;4.402;2022-09-13T16:47:26;23.20;99.90
41876;DHT22;27555;50.808;4.402;2022-09-13T16:49:51;23.30;99.90
41876;DHT22;27555;50.808;4.402;2022-09-13T16:52:17;23.20;99.90
41876;DHT22;27555;50.808;4.402;2022-09-13T16:54:43;23.10;99.90
41876;DHT22;27555;50.808;4.402;2022-09-13T16:57:14;23.10;99.90
41876;DHT22;27555;50.808;4.402;2022-09-13T16:59:39;23.00;99.90
41876;DHT22;27555;50.808;4.402;2022-09-13T17:02:06;23.00;99.90
41876;DHT22;27555;50.808;4.402;2022-09-13T17:04:32;22.90;99.90
41876;DHT22;27555;50.808;4.402;2022-09-13T17:06:58;22.90;99.90
41876;DHT22;27555;50.808;4.402;2022-09-13T17:09:26;22.80;99.90
41876;DHT22;27555;50.808;4.402;2022-09-13T17:11:52;22.50;99.90
41876;DHT22;27555;50.808;4.402;2022-09-13T17:14:18;22.40;99.90
41876;DHT22;27555;50.808;4.402;2022-09-13T17:16:51;22.40;99.90
41876;DHT22;27555;50.808;4.402;2022-09-13T17:19:22;22.30;99.90
41876;DHT22;27555;50.808;4.402;2022-09-13T17:21:49;22.20;99.90
41876;DHT22;27555;50.808;4.402;2022-09-13T17:24:15;21.90;99.90
41876;DHT22;27555;50.808;4.402;2022-09-13T17:26:41;21.80;99.90
41876;DHT22;27555;50.808;4.402;2022-09-13T17:29:07;22.00;99.90
41876;DHT22;27555;50.808;4.402;2022-09-13T17:31:33;22.00;99.90
41876;DHT22;27555;50.808;4.402;2022-09-13T17:33:59;22.10;99.90
41876;DHT22;27555;50.808;4.402;2022-09-13T17:36:25;22.20;99.90
41876;DHT22;27555;50.808;4.402;2022-09-13T17:38:55;22.20;99.90
41876;DHT22;27555;50.808;4.402;2022-09-13T17:41:21;22.20;99.90
41876;DHT22;27555;50.808;4.402;2022-09-13T17:43:48;22.10;99.90
41876;DHT22;27555;50.808;4.402;2022-09-13T17:46:14;21.90;99.90
41876;DHT22;27555;50.808;4.402;2022-09-13T17:48:41;22.00;99.90
41876;DHT22;27555;50.808;4.402;2022-09-13T17:51:09;22.00;99.90
41876;DHT22;27555;50.808;4.402;2022-09-13T17:53:37;21.90;99.90
41876;DHT22;27555;50.808;4.402;2022-09-13T17:56:04;21.80;99.90
41876;DHT22;27555;50.808;4.402;2022-09-13T17:58:29;21.70;99.90
41876;DHT22;27555;50.808;4.402;2022-09-13T18:01:00;21.70;99.90
41876;DHT22;27555;50.808;4.402;2022-09-13T18:03:26;21.70;99.90
41876;DHT22;27555;50.808;4.402;2022-09-13T18:05:59;21.60;99.90
41876;DHT22;27555;50.808;4.402;2022-09-13T18:08:26;21.60;99.90
41876;DHT22;27555;50.808;4.402;2022-09-13T18:10:52;21.70;99.90
41876;DHT22;27555;50.808;4.402;2022-09-13T18:13:18;21.70;99.90
41876;DHT22;27555;50.808;4.402;2022-09-13T18:15:45;21.70;99.90
41876;DHT22;27555;50.808;4.402;2022-09-13T18:18:11;21.70;99.90
41876;DHT22;27555;50.808;4.402;2022-09-13T18:20:37;21.60;99.90
41876;DHT22;27555;50.808;4.402;2022-09-13T18:23:03;21.60;99.90
41876;DHT22;27555;50.808;4.402;2022-09-13T18:25:29;21.60;99.90
41876;DHT22;27555;50.808;4.402;2022-09-13T18:27:55;21.60;99.90
41876;DHT22;27555;50.808;4.402;2022-09-13T18:30:21;21.50;99.90
41876;DHT22;27555;50.808;4.402;2022-09-13T18:32:46;21.40;99.90
41876;DHT22;27555;50.808;4.402;2022-09-13T18:35:12;21.40;99.90
41876;DHT22;27555;50.808;4.402;2022-09-13T18:37:38;21.50;99.90
41876;DHT22;27555;50.808;4.402;2022-09-13T18:40:03;21.50;99.90
41876;DHT22;27555;50.808;4.402;2022-09-13T18:42:31;21.60;99.90
41876;DHT22;27555;50.808;4.402;2022-09-13T18:44:57;21.60;99.90
41876;DHT22;27555;50.808;4.402;2022-09-13T18:47:22;21.60;99.90
41876;DHT22;27555;50.808;4.402;2022-09-13T18:49:48;21.60;99.90
41876;DHT22;27555;50.808;4.402;2022-09-13T18:52:13;21.60;99.90
41876;DHT22;27555;50.808;4.402;2022-09-13T18:54:40;21.60;99.90
41876;DHT22;27555;50.808;4.402;2022-09-13T18:57:05;21.60;99.90
41876;DHT22;27555;50.808;4.402;2022-09-13T18:59:31;21.70;99.90